Oakville, California
Current Conditions -  °F | °C
As of 11:54 AM on Tuesday 21 Oct 2014 (Local Time) from KAPC Reporting Station
Clear Clear  
Wind Chill: 66°   Ceiling: Unl
Heat Index: 66°   Visibility: 10mi
Dew Point: 48°   Wind: 8mph
Humidity: 52%   Direction: 200°SSW
Pressure: 30.09"   Gusts: NA
Location:  38.44°N, 122.4°W
Report Text: KAPC 211854Z AUTO 20007KT 10SM CLR 19/09 A3009 RMK AO2 SLP181 T01890089
Loading
Personal Weather Stations






























Interactive Weather Map
Tropical Storm Tracking
New forecast layout! Learn more

10-Day Weather Forecast

Advertisements
Track Severe Weather on mobile